createdAt,value
2019-01-26T00:01:54.329Z,92.00
2019-01-26T00:03:58.214Z,78.33
2019-01-26T00:06:02.186Z,151.93
2019-01-26T00:08:06.026Z,120.70
2019-01-26T00:10:10.362Z,89.97
2019-01-26T00:12:17.206Z,82.27
2019-01-26T00:14:22.669Z,63.33
2019-01-26T00:16:26.626Z,72.23
2019-01-26T00:18:31.037Z,138.07
2019-01-26T00:20:37.932Z,153.23
2019-01-26T00:22:42.027Z,137.30
2019-01-26T00:24:45.921Z,157.47
2019-01-26T00:26:53.024Z,128.50
2019-01-26T00:28:58.225Z,128.03
2019-01-26T00:31:02.103Z,91.80
2019-01-26T00:33:06.006Z,137.13
2019-01-26T00:35:10.185Z,110.70
2019-01-26T00:37:18.005Z,182.30
2019-01-26T00:39:22.087Z,115.40
2019-01-26T00:41:25.971Z,156.33
2019-01-26T00:43:31.533Z,109.13
2019-01-26T00:45:35.621Z,81.10
2019-01-26T00:47:39.506Z,82.70
2019-01-26T00:49:43.431Z,123.27
2019-01-26T00:51:48.493Z,77.27
2019-01-26T00:53:52.334Z,141.37
2019-01-26T00:55:56.249Z,67.87
2019-01-26T00:58:00.117Z,154.43
2019-01-26T01:00:18.258Z,110.77
2019-01-26T01:02:22.149Z,72.47
2019-01-26T01:04:26.100Z,63.20
2019-01-26T01:06:29.967Z,63.27
2019-01-26T01:08:33.865Z,43.70
2019-01-26T01:10:37.749Z,88.73
2019-01-26T01:12:41.618Z,83.43
2019-01-26T01:14:45.510Z,105.13
2019-01-26T01:16:49.402Z,73.07
2019-01-26T01:18:53.284Z,71.27
2019-01-26T01:20:57.237Z,74.00
2019-01-26T01:23:01.201Z,105.10
2019-01-26T01:25:08.151Z,64.30
2019-01-26T01:27:12.052Z,77.93
2019-01-26T01:29:15.976Z,93.20
2019-01-26T01:31:19.862Z,98.37
2019-01-26T01:33:23.769Z,71.87
2019-01-26T01:35:27.619Z,85.03
2019-01-26T01:37:31.660Z,83.70
2019-01-26T01:39:35.519Z,71.03
2019-01-26T01:41:39.378Z,57.10
2019-01-26T01:43:43.274Z,54.20
2019-01-26T01:45:47.133Z,50.03
2019-01-26T01:47:51.067Z,34.87
2019-01-26T01:49:55.038Z,46.67
2019-01-26T01:51:58.922Z,39.73
2019-01-26T01:54:02.800Z,34.90
2019-01-26T01:56:06.776Z,45.50
2019-01-26T01:58:10.634Z,54.17
2019-01-26T02:00:19.804Z,38.30
2019-01-26T02:02:23.659Z,41.47
2019-01-26T02:04:27.596Z,63.10
2019-01-26T02:06:31.439Z,55.33
2019-01-26T02:08:35.293Z,55.87
2019-01-26T02:10:39.241Z,68.53
2019-01-26T02:12:43.081Z,67.97
2019-01-26T02:14:46.979Z,95.60
2019-01-26T02:16:50.834Z,67.67
2019-01-26T02:18:54.748Z,61.60
2019-01-26T02:20:58.817Z,104.40
2019-01-26T02:23:02.792Z,73.97
2019-01-26T02:25:06.760Z,106.03
2019-01-26T02:27:10.687Z,87.60
2019-01-26T02:29:14.565Z,112.97
2019-01-26T02:31:18.434Z,101.10
2019-01-26T02:33:22.311Z,60.10
2019-01-26T02:35:26.181Z,84.13
2019-01-26T02:37:30.160Z,111.70
2019-01-26T02:39:34.035Z,30.67
2019-01-26T02:41:37.908Z,77.93
2019-01-26T02:43:41.844Z,62.03
2019-01-26T02:45:52.775Z,100.43
2019-01-26T02:47:57.098Z,55.80
2019-01-26T02:50:01.976Z,66.63
2019-01-26T02:52:05.829Z,54.10
2019-01-26T02:54:09.721Z,38.97
2019-01-26T02:56:13.581Z,38.50
2019-01-26T02:58:17.596Z,34.53
2019-01-26T03:00:23.084Z,54.43
2019-01-26T03:02:26.963Z,30.80
2019-01-26T03:04:30.880Z,32.97
2019-01-26T03:06:34.723Z,35.33
2019-01-26T03:08:38.602Z,40.37
2019-01-26T03:10:42.517Z,18.43
2019-01-26T03:12:46.405Z,30.70
2019-01-26T03:14:50.300Z,48.33
2019-01-26T03:16:54.191Z,32.50
2019-01-26T03:18:58.057Z,22.23
2019-01-26T03:21:01.975Z,17.10
2019-01-26T03:23:05.864Z,48.73
2019-01-26T03:25:11.031Z,36.67
2019-01-26T03:27:14.923Z,38.67
2019-01-26T03:29:18.782Z,63.17
2019-01-26T03:31:22.649Z,28.37
2019-01-26T03:33:26.535Z,24.57
2019-01-26T03:35:30.655Z,22.83
2019-01-26T03:37:34.770Z,16.37
2019-01-26T03:39:38.833Z,17.00
2019-01-26T03:41:42.926Z,23.67
2019-01-26T03:43:47.100Z,20.80
2019-01-26T03:45:51.052Z,40.23
2019-01-26T03:47:54.936Z,22.27
2019-01-26T03:49:58.909Z,36.80
2019-01-26T03:52:03.079Z,28.57
2019-01-26T03:54:06.946Z,32.63
2019-01-26T03:56:10.893Z,37.90
2019-01-26T03:58:15.053Z,17.80
2019-01-26T04:00:24.815Z,17.07
2019-01-26T04:02:28.841Z,16.93
2019-01-26T04:04:32.952Z,15.43
2019-01-26T04:06:36.859Z,14.30
2019-01-26T04:08:40.720Z,17.33
2019-01-26T04:10:44.651Z,14.43
2019-01-26T04:12:48.504Z,21.27
2019-01-26T04:14:52.381Z,21.27
2019-01-26T04:16:56.307Z,21.73
2019-01-26T04:19:00.151Z,21.40
2019-01-26T04:21:04.038Z,17.13
2019-01-26T04:23:08.104Z,18.13
2019-01-26T04:25:12.053Z,20.83
2019-01-26T04:27:15.911Z,21.30
2019-01-26T04:29:19.798Z,26.27
2019-01-26T04:31:23.695Z,38.13
2019-01-26T04:33:27.676Z,23.03
2019-01-26T04:35:31.526Z,30.47
2019-01-26T04:37:35.420Z,27.43
2019-01-26T04:39:39.302Z,20.80
2019-01-26T04:41:43.184Z,25.87
2019-01-26T04:43:47.055Z,25.10
2019-01-26T04:45:51.026Z,33.37
2019-01-26T04:47:54.953Z,30.63
2019-01-26T04:49:58.834Z,25.37
2019-01-26T04:52:02.690Z,32.23
2019-01-26T04:54:06.589Z,20.17
2019-01-26T04:56:10.457Z,23.97
2019-01-26T04:58:14.344Z,33.67
2019-01-26T05:00:23.566Z,34.63
2019-01-26T05:02:27.652Z,30.20
2019-01-26T05:04:31.575Z,33.03
2019-01-26T05:06:35.408Z,34.67
2019-01-26T05:08:39.426Z,29.37
2019-01-26T05:10:43.288Z,36.57
2019-01-26T05:12:47.485Z,34.77
2019-01-26T05:14:51.361Z,30.23
2019-01-26T05:16:55.251Z,40.83
2019-01-26T05:18:59.109Z,37.60
2019-01-26T05:21:03.070Z,28.47
2019-01-26T05:23:06.952Z,37.33
2019-01-26T05:25:11.037Z,39.97
2019-01-26T05:27:14.946Z,36.57
2019-01-26T05:29:18.796Z,32.27
2019-01-26T05:31:22.713Z,37.27
2019-01-26T05:33:26.629Z,39.20
2019-01-26T05:35:30.593Z,34.87
2019-01-26T05:37:34.497Z,41.93
2019-01-26T05:39:38.358Z,46.37
2019-01-26T05:41:42.279Z,36.33
2019-01-26T05:43:46.149Z,44.87
2019-01-26T05:45:50.055Z,46.47
2019-01-26T05:47:53.962Z,48.10
2019-01-26T05:49:57.851Z,50.20
2019-01-26T05:52:01.735Z,51.97
2019-01-26T05:54:05.903Z,46.43
2019-01-26T05:56:09.775Z,54.20
2019-01-26T05:58:13.675Z,55.47
2019-01-26T06:00:21.578Z,55.07
2019-01-26T06:02:25.416Z,53.33
2019-01-26T06:04:29.389Z,53.80
2019-01-26T06:06:33.246Z,46.07
2019-01-26T06:08:37.150Z,53.77
2019-01-26T06:10:41.100Z,52.53
2019-01-26T06:12:44.976Z,58.73
2019-01-26T06:14:49.480Z,41.70
2019-01-26T06:16:53.439Z,61.10
2019-01-26T06:18:57.526Z,52.47
2019-01-26T06:21:01.578Z,51.60
2019-01-26T06:23:05.505Z,49.27
2019-01-26T06:25:12.608Z,46.20
2019-01-26T06:27:16.504Z,52.10
2019-01-26T06:29:20.434Z,49.33
2019-01-26T06:31:24.365Z,45.80
2019-01-26T06:33:28.238Z,45.77
2019-01-26T06:35:32.109Z,46.00
2019-01-26T06:37:36.045Z,46.90
2019-01-26T06:39:39.947Z,48.63
2019-01-26T06:41:43.912Z,50.53
2019-01-26T06:43:47.798Z,45.50
2019-01-26T06:45:51.665Z,54.27
2019-01-26T06:48:01.891Z,37.57
2019-01-26T06:50:01.178Z,41.93
2019-01-26T06:52:05.339Z,42.60
2019-01-26T06:54:09.291Z,41.77
2019-01-26T06:56:13.189Z,34.20
2019-01-26T06:58:17.058Z,46.03
2019-01-26T07:00:23.532Z,45.87
2019-01-26T07:02:27.412Z,49.10
2019-01-26T07:04:38.574Z,47.27
2019-01-26T07:06:43.681Z,53.77
2019-01-26T07:08:47.566Z,38.03
2019-01-26T07:10:51.454Z,47.40
2019-01-26T07:12:55.354Z,44.10
2019-01-26T07:14:59.261Z,47.10
2019-01-26T07:17:03.184Z,41.63
2019-01-26T07:19:07.051Z,49.60
2019-01-26T07:21:10.954Z,44.93
2019-01-26T07:23:14.828Z,51.77
2019-01-26T07:25:19.301Z,44.90
2019-01-26T07:27:23.321Z,48.50
2019-01-26T07:29:27.226Z,55.67
2019-01-26T07:31:31.115Z,52.70
2019-01-26T07:33:35.025Z,48.73
2019-01-26T07:35:38.942Z,49.30
2019-01-26T07:37:42.914Z,50.17
2019-01-26T07:39:46.752Z,54.53
2019-01-26T07:41:50.663Z,46.17
2019-01-26T07:43:54.546Z,51.57
2019-01-26T07:45:58.574Z,60.00
2019-01-26T07:48:02.488Z,49.03
2019-01-26T07:50:09.456Z,54.73
2019-01-26T07:52:13.368Z,47.83
2019-01-26T07:54:17.303Z,62.37
2019-01-26T07:56:21.197Z,51.03
2019-01-26T07:58:25.136Z,59.57
2019-01-26T08:00:29.882Z,55.43
2019-01-26T08:02:33.762Z,68.63
2019-01-26T08:04:37.694Z,59.97
2019-01-26T08:06:41.561Z,55.67
2019-01-26T08:08:45.486Z,64.93
2019-01-26T08:10:49.389Z,73.00
2019-01-26T08:12:56.681Z,65.87
2019-01-26T08:15:00.502Z,67.30
2019-01-26T08:17:04.366Z,63.60
2019-01-26T08:19:08.327Z,64.57
2019-01-26T08:21:12.371Z,70.80
2019-01-26T08:23:16.275Z,66.40
2019-01-26T08:25:20.358Z,66.10
2019-01-26T08:27:24.271Z,78.70
2019-01-26T08:29:28.139Z,74.17
2019-01-26T08:31:32.037Z,67.10
2019-01-26T08:33:35.909Z,74.07
2019-01-26T08:35:39.855Z,80.93
2019-01-26T08:37:43.745Z,77.77
2019-01-26T08:39:47.598Z,69.47
2019-01-26T08:41:54.703Z,70.17
2019-01-26T08:43:58.589Z,75.67
2019-01-26T08:46:05.985Z,86.43
2019-01-26T08:48:10.033Z,71.33
2019-01-26T08:50:17.005Z,66.00
2019-01-26T08:52:21.970Z,88.03
2019-01-26T08:54:27.177Z,71.87
2019-01-26T08:56:31.103Z,70.93
2019-01-26T08:58:34.973Z,79.50
2019-01-26T09:00:38.842Z,72.03
2019-01-26T09:02:56.283Z,89.67
2019-01-26T09:05:03.906Z,76.43
2019-01-26T09:07:08.318Z,79.60
2019-01-26T09:09:12.502Z,58.93
2019-01-26T09:11:16.360Z,70.50
2019-01-26T09:13:20.279Z,82.03
2019-01-26T09:15:24.447Z,72.23
2019-01-26T09:17:30.062Z,75.37
2019-01-26T09:19:38.179Z,72.53
2019-01-26T09:21:40.814Z,66.27
2019-01-26T09:23:44.827Z,86.23
2019-01-26T09:25:48.685Z,86.60
2019-01-26T09:27:52.843Z,84.10
2019-01-26T09:29:56.786Z,75.07
2019-01-26T09:32:00.758Z,74.33
2019-01-26T09:34:05.042Z,65.03
2019-01-26T09:36:08.946Z,63.67
2019-01-26T09:38:12.816Z,67.57
2019-01-26T09:40:19.012Z,71.97
2019-01-26T09:42:22.892Z,85.43
2019-01-26T09:44:27.869Z,67.53
2019-01-26T09:46:31.773Z,64.00
2019-01-26T09:48:35.631Z,58.97
2019-01-26T09:50:39.522Z,61.97
2019-01-26T09:52:43.386Z,59.53
2019-01-26T09:54:47.318Z,60.23
2019-01-26T09:56:51.357Z,59.87
2019-01-26T09:58:55.229Z,67.90
2019-01-26T10:00:59.113Z,63.40
2019-01-26T10:03:03.013Z,69.73
2019-01-26T10:05:09.421Z,58.53
2019-01-26T10:07:13.307Z,58.93
2019-01-26T10:09:17.279Z,62.73
2019-01-26T10:11:21.157Z,68.30
2019-01-26T10:13:25.108Z,59.57
2019-01-26T10:15:30.878Z,58.03
2019-01-26T10:17:34.741Z,54.80
2019-01-26T10:19:38.685Z,60.60
2019-01-26T10:21:42.559Z,55.77
2019-01-26T10:23:46.454Z,55.53
2019-01-26T10:25:50.384Z,50.77
2019-01-26T10:27:54.259Z,50.77
2019-01-26T10:29:58.261Z,52.03
2019-01-26T10:32:02.118Z,41.67
2019-01-26T10:34:05.981Z,45.23
2019-01-26T10:36:11.458Z,39.67
2019-01-26T10:38:15.317Z,48.83
2019-01-26T10:40:38.967Z,42.87
2019-01-26T10:42:42.819Z,41.33
2019-01-26T10:44:46.783Z,37.67
2019-01-26T10:46:50.677Z,37.40
2019-01-26T10:49:00.474Z,39.83
2019-01-26T10:51:00.205Z,31.53
2019-01-26T10:53:04.187Z,39.13
2019-01-26T10:55:10.674Z,41.97
2019-01-26T10:57:14.518Z,30.70
2019-01-26T10:59:18.408Z,42.90
2019-01-26T11:01:22.261Z,40.17
2019-01-26T11:03:26.261Z,34.87
2019-01-26T11:05:30.149Z,38.00
2019-01-26T11:07:34.026Z,40.97
2019-01-26T11:09:37.921Z,37.00
2019-01-26T11:11:41.837Z,37.97
2019-01-26T11:13:45.731Z,38.77
2019-01-26T11:15:49.613Z,37.70
2019-01-26T11:17:53.489Z,37.33
2019-01-26T11:19:57.382Z,40.67
2019-01-26T11:22:01.293Z,37.27
2019-01-26T11:24:05.277Z,35.10
2019-01-26T11:26:09.208Z,35.53
2019-01-26T11:28:13.041Z,35.20
2019-01-26T11:30:18.743Z,35.67
2019-01-26T11:32:22.586Z,35.43
2019-01-26T11:34:26.452Z,33.90
2019-01-26T11:36:30.392Z,33.10
2019-01-26T11:38:34.286Z,29.30
2019-01-26T11:40:38.175Z,29.23
2019-01-26T11:42:42.054Z,27.43
2019-01-26T11:44:47.581Z,27.30
2019-01-26T11:46:51.719Z,27.27
2019-01-26T11:48:55.638Z,25.57
2019-01-26T11:51:01.058Z,25.60
2019-01-26T11:53:05.291Z,19.80
2019-01-26T11:55:10.709Z,27.97
2019-01-26T11:57:16.130Z,28.60
2019-01-26T11:59:20.087Z,24.87
2019-01-26T12:01:25.526Z,21.87
2019-01-26T12:03:30.943Z,22.83
2019-01-26T12:05:36.487Z,20.90
2019-01-26T12:07:40.373Z,26.07
2019-01-26T12:09:44.255Z,26.83
2019-01-26T12:11:48.126Z,23.00
2019-01-26T12:13:52.134Z,23.07
2019-01-26T12:15:56.041Z,22.60
2019-01-26T12:18:00.034Z,23.47
2019-01-26T12:20:05.749Z,25.43
2019-01-26T12:22:09.644Z,23.43
2019-01-26T12:24:13.594Z,33.73
2019-01-26T12:26:17.453Z,25.07
2019-01-26T12:28:21.359Z,25.80
2019-01-26T12:30:26.405Z,20.90
2019-01-26T12:32:30.365Z,20.03
2019-01-26T12:34:34.230Z,24.77
2019-01-26T12:36:38.226Z,22.50
2019-01-26T12:38:42.076Z,21.97
2019-01-26T12:40:45.953Z,22.20
2019-01-26T12:42:49.902Z,25.00
2019-01-26T12:44:53.762Z,23.90
2019-01-26T12:46:57.710Z,24.23
2019-01-26T12:49:01.562Z,25.50
2019-01-26T12:51:05.453Z,26.93
2019-01-26T12:53:09.313Z,37.77
2019-01-26T12:55:17.937Z,38.33
2019-01-26T12:57:21.865Z,37.07
2019-01-26T12:59:25.771Z,35.00
2019-01-26T13:01:29.764Z,30.90
2019-01-26T13:03:33.625Z,36.00
2019-01-26T13:05:37.514Z,39.67
2019-01-26T13:07:41.455Z,33.20
2019-01-26T13:09:45.631Z,26.07
2019-01-26T13:11:49.677Z,36.87
2019-01-26T13:13:53.667Z,35.80
2019-01-26T13:15:57.545Z,35.13
2019-01-26T13:18:01.451Z,40.03
2019-01-26T13:20:09.189Z,44.77
2019-01-26T13:22:13.081Z,42.17
2019-01-26T13:24:17.005Z,39.60
2019-01-26T13:26:20.958Z,34.30
2019-01-26T13:28:24.875Z,41.27
2019-01-26T13:30:28.724Z,40.47
2019-01-26T13:32:32.583Z,45.53
2019-01-26T13:34:36.464Z,43.20
2019-01-26T13:36:40.331Z,50.00
2019-01-26T13:38:44.231Z,41.07
2019-01-26T13:40:48.095Z,51.93
2019-01-26T13:42:52.004Z,42.97
2019-01-26T13:44:55.888Z,50.20
2019-01-26T13:46:59.756Z,43.23
2019-01-26T13:49:03.621Z,45.67
2019-01-26T13:51:12.907Z,41.73
2019-01-26T13:53:13.052Z,52.23
2019-01-26T13:55:23.893Z,46.80
2019-01-26T13:57:27.765Z,40.33
2019-01-26T13:59:31.685Z,59.87
2019-01-26T14:01:35.557Z,44.00
2019-01-26T14:03:39.439Z,50.93
2019-01-26T14:05:43.346Z,44.13
2019-01-26T14:07:47.214Z,50.40
2019-01-26T14:09:51.079Z,40.43
2019-01-26T14:11:55.001Z,48.23
2019-01-26T14:13:58.869Z,42.33
2019-01-26T14:16:02.876Z,44.10
2019-01-26T14:18:06.968Z,40.67
2019-01-26T14:20:16.252Z,44.13
2019-01-26T14:22:20.138Z,46.33
2019-01-26T14:24:23.997Z,47.40
2019-01-26T14:26:27.911Z,39.33
2019-01-26T14:28:31.816Z,45.40
2019-01-26T14:30:41.428Z,43.43
2019-01-26T14:32:45.324Z,35.77
2019-01-26T14:34:49.189Z,43.93
2019-01-26T14:36:53.084Z,38.90
2019-01-26T14:38:56.941Z,44.67
2019-01-26T14:41:01.056Z,41.73
2019-01-26T14:43:05.161Z,37.10
2019-01-26T14:45:14.239Z,48.37
2019-01-26T14:47:18.170Z,48.97
2019-01-26T14:49:22.009Z,44.63
2019-01-26T14:51:25.930Z,45.03
2019-01-26T14:53:29.821Z,42.07
2019-01-26T14:55:33.671Z,33.83
2019-01-26T14:57:37.778Z,38.13
2019-01-26T14:59:41.645Z,46.47
2019-01-26T15:01:45.624Z,38.97
2019-01-26T15:03:49.522Z,41.10
2019-01-26T15:05:53.421Z,29.93
2019-01-26T15:07:57.595Z,31.40
2019-01-26T15:10:01.455Z,29.60
2019-01-26T15:12:05.363Z,35.50
2019-01-26T15:14:16.086Z,27.30
2019-01-26T15:16:20.114Z,28.07
2019-01-26T15:18:24.056Z,23.90
2019-01-26T15:20:39.361Z,31.50
2019-01-26T15:22:43.267Z,29.70
2019-01-26T15:24:47.159Z,23.27
2019-01-26T15:26:51.016Z,35.43
2019-01-26T15:28:54.971Z,26.80
2019-01-26T15:30:58.908Z,24.47
2019-01-26T15:33:02.754Z,28.97
2019-01-26T15:35:07.347Z,26.13
2019-01-26T15:37:11.234Z,25.00
2019-01-26T15:39:15.198Z,22.63
2019-01-26T15:41:19.061Z,33.37
2019-01-26T15:43:24.461Z,24.43
2019-01-26T15:45:31.478Z,24.40
2019-01-26T15:47:35.362Z,24.27
2019-01-26T15:49:39.229Z,21.97
2019-01-26T15:51:43.111Z,26.10
2019-01-26T15:53:47.002Z,24.83
2019-01-26T15:55:50.835Z,25.87
2019-01-26T15:57:54.832Z,23.93
2019-01-26T15:59:58.716Z,23.50
2019-01-26T16:02:02.565Z,25.53
2019-01-26T16:04:06.463Z,21.77
2019-01-26T16:06:10.386Z,24.90
2019-01-26T16:08:14.285Z,24.90
2019-01-26T16:10:20.724Z,19.53
2019-01-26T16:12:24.584Z,15.90
2019-01-26T16:14:28.527Z,23.20
2019-01-26T16:16:32.388Z,19.90
2019-01-26T16:18:36.238Z,23.77
2019-01-26T16:20:40.253Z,21.17
2019-01-26T16:22:44.117Z,30.80
2019-01-26T16:24:48.018Z,27.80
2019-01-26T16:26:51.910Z,28.77
2019-01-26T16:28:55.835Z,33.73
2019-01-26T16:31:00.806Z,24.90
2019-01-26T16:33:04.686Z,27.37
2019-01-26T16:35:13.347Z,26.83
2019-01-26T16:37:17.226Z,27.53
2019-01-26T16:39:21.108Z,32.33
2019-01-26T16:41:25.130Z,25.87
2019-01-26T16:43:28.990Z,27.07
2019-01-26T16:45:37.792Z,27.50
2019-01-26T16:47:41.967Z,23.47
2019-01-26T16:49:45.845Z,28.47
2019-01-26T16:51:49.755Z,30.90
2019-01-26T16:53:53.666Z,27.87
2019-01-26T16:55:57.530Z,33.03
2019-01-26T16:58:01.975Z,29.77
2019-01-26T17:00:12.117Z,25.48
2019-01-26T17:02:16.062Z,31.73
2019-01-26T17:04:20.030Z,29.13
2019-01-26T17:06:23.915Z,31.23
2019-01-26T17:08:27.861Z,29.47
2019-01-26T17:10:34.355Z,28.47
2019-01-26T17:12:37.354Z,32.13
2019-01-26T17:14:41.278Z,31.73
2019-01-26T17:16:45.150Z,26.60
2019-01-26T17:18:49.062Z,23.27
2019-01-26T17:20:52.932Z,24.47
2019-01-26T17:22:57.295Z,24.63
2019-01-26T17:25:01.193Z,26.23
2019-01-26T17:27:05.384Z,22.37
2019-01-26T17:29:09.221Z,26.47
2019-01-26T17:31:13.126Z,22.77
2019-01-26T17:33:17.007Z,23.87
2019-01-26T17:35:21.214Z,26.60
2019-01-26T17:37:25.086Z,23.97
2019-01-26T17:39:28.978Z,24.57
2019-01-26T17:41:32.877Z,21.53
2019-01-26T17:43:36.760Z,21.70
2019-01-26T17:45:40.609Z,25.17
2019-01-26T17:47:44.756Z,23.27
2019-01-26T17:49:48.593Z,23.70
2019-01-26T17:51:52.485Z,21.63
2019-01-26T17:53:56.347Z,26.70
2019-01-26T17:56:00.263Z,17.70
2019-01-26T17:58:04.158Z,19.73
2019-01-26T18:00:16.654Z,23.33
2019-01-26T18:02:20.574Z,20.93
2019-01-26T18:04:24.462Z,21.60
2019-01-26T18:06:28.365Z,20.97
2019-01-26T18:08:32.238Z,17.03
2019-01-26T18:10:36.203Z,18.40
2019-01-26T18:12:40.048Z,15.00
2019-01-26T18:14:43.985Z,16.83
2019-01-26T18:16:47.888Z,15.73
2019-01-26T18:18:51.738Z,18.87
2019-01-26T18:20:55.613Z,15.13
2019-01-26T18:23:01.339Z,14.23
2019-01-26T18:25:08.207Z,13.57
2019-01-26T18:27:12.096Z,15.87
2019-01-26T18:29:15.965Z,15.27
2019-01-26T18:31:19.831Z,14.40
2019-01-26T18:33:23.722Z,12.10
2019-01-26T18:35:27.599Z,12.93
2019-01-26T18:37:31.437Z,13.43
2019-01-26T18:39:35.336Z,12.97
2019-01-26T18:41:39.242Z,12.07
2019-01-26T18:43:43.170Z,12.40
2019-01-26T18:45:47.075Z,10.83
2019-01-26T18:47:50.906Z,13.73
2019-01-26T18:49:54.804Z,10.13
2019-01-26T18:51:58.701Z,13.67
2019-01-26T18:54:02.697Z,10.17
2019-01-26T18:56:06.580Z,14.70
2019-01-26T18:58:10.455Z,13.87
2019-01-26T19:00:20.404Z,11.60
2019-01-26T19:02:24.265Z,17.23
2019-01-26T19:04:28.128Z,13.73
2019-01-26T19:06:32.011Z,11.20
2019-01-26T19:08:35.929Z,17.93
2019-01-26T19:10:39.822Z,11.00
2019-01-26T19:12:43.744Z,13.97
2019-01-26T19:14:47.601Z,12.13
2019-01-26T19:16:51.481Z,12.13
2019-01-26T19:18:55.612Z,18.50
2019-01-26T19:21:03.362Z,16.63
2019-01-26T19:23:05.363Z,13.63
2019-01-26T19:25:17.683Z,16.93
2019-01-26T19:27:21.718Z,18.07
2019-01-26T19:29:25.643Z,17.07
2019-01-26T19:31:29.559Z,16.73
2019-01-26T19:33:33.452Z,16.37
2019-01-26T19:35:37.356Z,15.87
2019-01-26T19:37:41.248Z,17.37
2019-01-26T19:39:45.276Z,19.60
2019-01-26T19:41:49.152Z,17.10
2019-01-26T19:43:53.169Z,16.73
2019-01-26T19:45:57.187Z,17.37
2019-01-26T19:48:01.286Z,15.70
2019-01-26T19:50:09.081Z,15.25
2019-01-26T19:52:13.128Z,14.23
2019-01-26T19:54:17.270Z,15.43
2019-01-26T19:56:21.296Z,16.17
2019-01-26T19:58:25.417Z,16.80
2019-01-26T20:00:29.596Z,15.63
2019-01-26T20:02:33.817Z,19.80
2019-01-26T20:04:37.755Z,16.57
2019-01-26T20:06:41.881Z,20.07
2019-01-26T20:08:46.040Z,16.87
2019-01-26T20:10:50.172Z,14.30
2019-01-26T20:12:54.474Z,15.80
2019-01-26T20:14:58.545Z,20.03
2019-01-26T20:17:03.043Z,17.10
2019-01-26T20:19:07.106Z,23.63
2019-01-26T20:21:17.498Z,21.80
2019-01-26T20:23:16.983Z,19.80
2019-01-26T20:25:21.135Z,16.70
2019-01-26T20:27:25.234Z,20.27
2019-01-26T20:29:29.302Z,18.33
2019-01-26T20:31:33.362Z,19.23
2019-01-26T20:33:37.254Z,25.93
2019-01-26T20:35:41.193Z,18.70
2019-01-26T20:37:45.167Z,19.03
2019-01-26T20:39:49.117Z,20.80
2019-01-26T20:41:53.088Z,19.87
2019-01-26T20:43:56.982Z,17.53
2019-01-26T20:46:01.034Z,23.93
2019-01-26T20:48:05.238Z,25.23
2019-01-26T20:50:12.497Z,26.40
2019-01-26T20:52:35.713Z,21.47
2019-01-26T20:54:39.840Z,22.77
2019-01-26T20:56:43.862Z,19.27
2019-01-26T20:58:47.897Z,20.13
2019-01-26T21:00:51.894Z,21.73
2019-01-26T21:02:55.845Z,19.13
2019-01-26T21:04:59.940Z,19.77
2019-01-26T21:07:03.865Z,18.37
2019-01-26T21:09:08.299Z,22.23
2019-01-26T21:11:12.169Z,18.20
2019-01-26T21:13:16.586Z,20.30
2019-01-26T21:15:21.013Z,21.17
2019-01-26T21:17:24.825Z,18.83
2019-01-26T21:19:28.660Z,20.60
2019-01-26T21:21:32.524Z,20.20
2019-01-26T21:23:36.437Z,19.93
2019-01-26T21:25:40.264Z,20.00
2019-01-26T21:27:44.065Z,20.67
2019-01-26T21:29:47.921Z,20.47
2019-01-26T21:31:51.772Z,19.00
2019-01-26T21:33:55.655Z,17.80
2019-01-26T21:35:59.487Z,18.30
2019-01-26T21:38:03.367Z,18.63
2019-01-26T21:40:15.311Z,17.47
2019-01-26T21:42:19.177Z,19.20
2019-01-26T21:44:22.993Z,13.07
2019-01-26T21:46:26.869Z,17.87
2019-01-26T21:48:30.660Z,18.03
2019-01-26T21:50:34.593Z,17.80
2019-01-26T21:52:41.022Z,16.37
2019-01-26T21:54:43.886Z,16.17
2019-01-26T21:56:47.749Z,16.13
2019-01-26T21:58:51.599Z,17.27
2019-01-26T22:00:55.433Z,14.97
2019-01-26T22:02:59.288Z,20.30
2019-01-26T22:05:03.110Z,14.77
2019-01-26T22:07:06.929Z,14.37
2019-01-26T22:09:10.902Z,14.90
2019-01-26T22:11:14.729Z,13.90
2019-01-26T22:13:18.605Z,15.47
2019-01-26T22:15:23.737Z,12.87
2019-01-26T22:17:27.570Z,13.43
2019-01-26T22:19:31.480Z,15.17
2019-01-26T22:21:35.279Z,15.13
2019-01-26T22:23:39.201Z,15.47
2019-01-26T22:25:43.024Z,13.30
2019-01-26T22:27:46.856Z,14.23
2019-01-26T22:29:50.772Z,13.27
2019-01-26T22:31:54.572Z,14.87
2019-01-26T22:33:58.432Z,12.80
2019-01-26T22:36:02.589Z,15.23
2019-01-26T22:38:06.408Z,13.63
2019-01-26T22:40:24.975Z,12.40
2019-01-26T22:42:28.797Z,12.03
2019-01-26T22:44:32.709Z,11.57
2019-01-26T22:46:36.558Z,11.63
2019-01-26T22:48:42.277Z,11.97
2019-01-26T22:50:46.347Z,10.97
2019-01-26T22:52:50.194Z,12.90
2019-01-26T22:54:54.070Z,14.10
2019-01-26T22:56:57.898Z,14.33
2019-01-26T22:59:02.605Z,11.77
2019-01-26T23:01:09.825Z,14.23
2019-01-26T23:03:13.649Z,12.87
2019-01-26T23:05:49.431Z,13.27
2019-01-26T23:07:53.297Z,14.07
2019-01-26T23:10:03.045Z,11.03
2019-01-26T23:12:13.989Z,11.60
2019-01-26T23:14:32.573Z,10.27
2019-01-26T23:17:03.974Z,11.20
2019-01-26T23:19:25.557Z,11.17
2019-01-26T23:21:47.482Z,14.70
2019-01-26T23:24:03.089Z,12.00
2019-01-26T23:26:18.862Z,10.37
2019-01-26T23:28:28.460Z,11.30
2019-01-26T23:31:02.674Z,12.27
2019-01-26T23:33:06.804Z,11.80
2019-01-26T23:35:10.625Z,11.37
2019-01-26T23:37:14.465Z,10.40
2019-01-26T23:39:18.342Z,14.17
2019-01-26T23:41:22.172Z,14.27
2019-01-26T23:43:25.990Z,9.03
2019-01-26T23:45:29.788Z,11.00
2019-01-26T23:47:33.613Z,11.10
2019-01-26T23:49:37.518Z,12.33
2019-01-26T23:51:41.276Z,10.60
2019-01-26T23:53:45.079Z,12.47
2019-01-26T23:55:49.037Z,12.13
2019-01-26T23:57:52.867Z,8.77
2019-01-26T23:59:56.694Z,10.23
